Time;durP1;ratioP1;P1;durP2;ratioP2;P2;SDS_P1;SDS_P2;PMS_P1;PMS_P2;Temp;Humidity;BMP_temperature;BMP_pressure;BME280_temperature;BME280_humidity;BME280_pressure;Samples;Min_cycle;Max_cycle;Signal;HPM_P1;HPM_P2
2023/05/26 00:00:22;;;;;;;;;;;;;;;13.16;78.87;97082.81;5084414;28;19944;-76
2023/05/26 00:02:48;;;;;;;;;;;;;;;13.14;80.44;97087.50;5067524;28;19952;-77
2023/05/26 00:05:16;;;;;;;;;;;;;;;13.12;80.23;97089.59;5085398;28;19941;-76
2023/05/26 00:07:42;;;;;;;;;;;;;;;13.09;80.33;97103.16;5085251;28;19953;-76
2023/05/26 00:10:11;;;;;;;;;;;;;;;13.08;78.91;97096.31;5086179;28;20217;-73
2023/05/26 00:12:37;;;;;;;;;;;;;;;13.07;79.45;97097.31;5085238;28;20112;-74
2023/05/26 00:15:03;;;;;;;;;;;;;;;13.05;79.26;97094.09;5086012;28;20175;-80
2023/05/26 00:17:29;;;;;;;;;;;;;;;13.02;79.81;97104.25;5085166;28;20111;-81
2023/05/26 00:19:59;;;;;;;;;;;;;;;12.99;80.20;97101.03;5084973;28;19960;-80
2023/05/26 00:22:26;;;;;;;;;;;;;;;12.96;79.96;97104.09;5083979;28;20148;-79
2023/05/26 00:24:52;;;;;;;;;;;;;;;12.96;80.65;97104.09;5085848;28;19958;-79
2023/05/26 00:27:18;;;;;;;;;;;;;;;12.96;79.43;97106.72;5085413;28;20243;-79
2023/05/26 00:29:44;;;;;;;;;;;;;;;12.96;79.41;97111.19;5083719;28;19943;-72
2023/05/26 00:32:10;;;;;;;;;;;;;;;12.97;79.81;97112.78;5084523;28;20218;-71
2023/05/26 00:34:36;;;;;;;;;;;;;;;12.98;79.84;97109.16;5084284;28;20123;-70
2023/05/26 00:37:02;;;;;;;;;;;;;;;13.02;79.30;97098.97;5084383;28;20143;-70
2023/05/26 00:39:29;;;;;;;;;;;;;;;13.04;80.24;97110.09;5067495;28;20124;-70
2023/05/26 00:41:55;;;;;;;;;;;;;;;13.04;79.41;97100.41;5066096;28;19948;-70
2023/05/26 00:44:21;;;;;;;;;;;;;;;13.04;79.43;97099.56;5083452;28;20018;-70
2023/05/26 00:46:47;;;;;;;;;;;;;;;13.04;78.81;97089.03;5084482;28;20155;-70
2023/05/26 00:49:13;;;;;;;;;;;;;;;13.02;79.18;97091.91;5083391;28;19946;-77
2023/05/26 00:51:40;;;;;;;;;;;;;;;13.03;80.02;97097.97;5083443;28;19999;-72
2023/05/26 00:54:07;;;;;;;;;;;;;;;13.03;80.46;97101.41;5084974;28;20083;-73
2023/05/26 00:56:35;;;;;;;;;;;;;;;13.04;79.74;97102.19;5083286;28;19944;-73
2023/05/26 00:59:02;;;;;;;;;;;;;;;13.04;79.80;97099.56;5083290;28;19943;-73
2023/05/26 01:01:29;;;;;;;;;;;;;;;12.99;79.22;97093.13;5083315;28;19938;-72
2023/05/26 01:03:55;;;;;;;;;;;;;;;12.98;79.40;97099.44;5066479;28;19946;-73
2023/05/26 01:06:22;;;;;;;;;;;;;;;12.94;78.75;97087.72;5084228;28;19959;-79
2023/05/26 01:08:48;;;;;;;;;;;;;;;12.92;79.51;97091.59;5084552;28;20229;-79
2023/05/26 01:11:21;;;;;;;;;;;;;;;12.91;79.87;97101.28;5066501;28;20116;-79
2023/05/26 01:13:57;;;;;;;;;;;;;;;12.89;79.46;97095.47;5083924;28;20121;-78
2023/05/26 01:16:27;;;;;;;;;;;;;;;12.89;79.72;97092.84;5083883;28;19955;-79
2023/05/26 01:18:57;;;;;;;;;;;;;;;12.89;79.38;97097.28;5084327;28;19964;-80
2023/05/26 01:21:27;;;;;;;;;;;;;;;12.87;79.00;97096.69;5083695;28;19948;-78
2023/05/26 01:23:53;;;;;;;;;;;;;;;12.86;79.42;97089.81;5084901;28;19938;-72
2023/05/26 01:26:26;;;;;;;;;;;;;;;12.85;79.37;97090.81;5066846;28;19945;-76
2023/05/26 01:28:54;;;;;;;;;;;;;;;12.83;80.28;97092.88;5084628;28;20227;-74
2023/05/26 01:31:20;;;;;;;;;;;;;;;12.81;79.78;97093.09;5084849;28;20137;-73
2023/05/26 01:33:46;;;;;;;;;;;;;;;12.82;80.24;97096.53;5066131;28;19949;-73
2023/05/26 01:36:12;;;;;;;;;;;;;;;12.82;79.84;97092.06;5084778;28;19942;-74
2023/05/26 01:38:39;;;;;;;;;;;;;;;12.80;80.07;97089.66;5082920;28;20150;-73
2023/05/26 01:41:08;;;;;;;;;;;;;;;12.78;79.73;97083.78;5083562;28;19941;-73
2023/05/26 01:43:41;;;;;;;;;;;;;;;12.75;79.86;97093.97;5083092;28;19940;-77
2023/05/26 01:46:19;;;;;;;;;;;;;;;12.71;79.99;97087.53;5082846;28;20253;-75
2023/05/26 01:48:46;;;;;;;;;;;;;;;12.69;80.08;97095.63;5082633;28;19946;-75
2023/05/26 01:51:13;;;;;;;;;;;;;;;12.69;80.56;97100.88;5083318;28;20095;-75
2023/05/26 01:53:42;;;;;;;;;;;;;;;12.68;80.18;97095.81;5086815;28;19942;-75
2023/05/26 01:56:08;;;;;;;;;;;;;;;12.67;80.08;97100.28;5087874;28;19939;-75
2023/05/26 01:58:34;;;;;;;;;;;;;;;12.66;80.64;97103.13;5087348;28;20208;-75
2023/05/26 02:01:00;;;;;;;;;;;;;;;12.63;80.49;97099.09;5087804;28;19939;-75
2023/05/26 02:03:26;;;;;;;;;;;;;;;12.62;80.33;97104.59;5086418;28;19949;-80
2023/05/26 02:05:52;;;;;;;;;;;;;;;12.59;80.47;97103.19;5087732;28;19942;-81
2023/05/26 02:08:17;;;;;;;;;;;;;;;12.58;80.65;97101.59;5088082;28;19952;-80
2023/05/26 02:10:43;;;;;;;;;;;;;;;12.57;81.03;97105.22;5069742;28;19990;-81
2023/05/26 02:13:09;;;;;;;;;;;;;;;12.53;80.37;97094.31;5086377;28;19944;-80
2023/05/26 02:15:35;;;;;;;;;;;;;;;12.50;80.17;97102.66;5087165;28;20045;-80
2023/05/26 02:18:02;;;;;;;;;;;;;;;12.47;81.15;97094.38;5087367;28;19953;-81
2023/05/26 02:20:28;;;;;;;;;;;;;;;12.48;80.92;97103.91;5087339;28;19986;-75
2023/05/26 02:22:54;;;;;;;;;;;;;;;12.47;81.43;97102.25;5087269;28;20233;-77
2023/05/26 02:25:20;;;;;;;;;;;;;;;12.49;81.13;97100.22;5087335;28;19943;-76
2023/05/26 02:27:46;;;;;;;;;;;;;;;12.49;81.34;97098.41;5086919;28;20005;-77
2023/05/26 02:30:12;;;;;;;;;;;;;;;12.51;81.66;97100.81;5086843;28;19949;-77
2023/05/26 02:32:38;;;;;;;;;;;;;;;12.51;82.05;97109.50;5086030;28;19936;-76
2023/05/26 02:35:04;;;;;;;;;;;;;;;12.50;82.28;97109.75;5086001;28;19947;-76
2023/05/26 02:37:30;;;;;;;;;;;;;;;12.48;81.70;97101.25;5070008;28;19944;-74
2023/05/26 02:39:56;;;;;;;;;;;;;;;12.44;82.18;97100.06;5087819;28;19937;-80
2023/05/26 02:42:22;;;;;;;;;;;;;;;12.41;82.13;97103.94;5085836;28;19948;-72
2023/05/26 02:44:48;;;;;;;;;;;;;;;12.38;82.04;97107.78;5086900;28;19947;-72
2023/05/26 02:47:14;;;;;;;;;;;;;;;12.33;81.37;97101.56;5085776;28;20029;-73
2023/05/26 02:49:42;;;;;;;;;;;;;;;12.28;81.94;97111.91;5085707;28;19945;-73
2023/05/26 02:52:08;;;;;;;;;;;;;;;12.25;82.70;97107.88;5086817;28;19938;-72
2023/05/26 02:54:34;;;;;;;;;;;;;;;12.25;82.06;97107.06;5087562;28;19946;-73
2023/05/26 02:57:00;;;;;;;;;;;;;;;12.23;83.61;97109.13;5086343;28;20166;-79
2023/05/26 02:59:25;;;;;;;;;;;;;;;12.24;82.92;97110.72;5085584;28;19964;-77
2023/05/26 03:01:51;;;;;;;;;;;;;;;12.24;83.02;97116.81;5085492;28;20256;-78
2023/05/26 03:04:17;;;;;;;;;;;;;;;12.26;82.68;97116.56;5085791;28;19948;-76
2023/05/26 03:06:43;;;;;;;;;;;;;;;12.26;83.25;97117.38;5069387;28;19947;-77
2023/05/26 03:09:09;;;;;;;;;;;;;;;12.25;83.12;97110.50;5069460;28;19954;-77
2023/05/26 03:11:35;;;;;;;;;;;;;;;12.26;83.22;97112.09;5086075;28;19946;-77
2023/05/26 03:14:01;;;;;;;;;;;;;;;12.25;83.19;97109.72;5086380;28;19938;-77
2023/05/26 03:16:27;;;;;;;;;;;;;;;12.26;83.63;97113.94;5085929;28;19945;-78
2023/05/26 03:18:53;;;;;;;;;;;;;;;12.26;83.52;97109.47;5085063;28;19971;-74
2023/05/26 03:21:19;;;;;;;;;;;;;;;12.26;83.65;97106.84;5086331;28;19952;-74
2023/05/26 03:23:45;;;;;;;;;;;;;;;12.27;83.37;97095.31;5086274;28;19940;-75
2023/05/26 03:26:11;;;;;;;;;;;;;;;12.27;83.66;97095.31;5085767;28;20312;-74
2023/05/26 03:28:37;;;;;;;;;;;;;;;12.29;83.71;97103.81;5085049;28;19960;-75
2023/05/26 03:31:03;;;;;;;;;;;;;;;12.29;83.64;97103.81;5086079;28;19943;-74
2023/05/26 03:33:31;;;;;;;;;;;;;;;12.29;83.98;97103.81;5086360;28;19945;-76
2023/05/26 03:35:58;;;;;;;;;;;;;;;12.29;83.48;97106.44;5068377;28;19946;-75
2023/05/26 03:38:24;;;;;;;;;;;;;;;12.30;83.37;97100.16;5085943;28;19942;-75
2023/05/26 03:40:50;;;;;;;;;;;;;;;12.29;84.19;97105.63;5084843;28;19989;-75
2023/05/26 03:43:16;;;;;;;;;;;;;;;12.28;83.62;97107.44;5086435;28;19938;-74
2023/05/26 03:45:42;;;;;;;;;;;;;;;12.28;83.56;97114.53;5085521;28;20102;-75
2023/05/26 03:48:12;;;;;;;;;;;;;;;12.25;84.01;97113.13;5085699;28;20142;-75
2023/05/26 03:50:38;;;;;;;;;;;;;;;12.25;84.36;97113.13;5086546;28;19948;-75
2023/05/26 03:53:04;;;;;;;;;;;;;;;12.25;84.16;97110.50;5086124;28;19945;-80
2023/05/26 03:55:33;;;;;;;;;;;;;;;12.25;84.76;97120.22;5083966;28;20147;-76
2023/05/26 03:57:59;;;;;;;;;;;;;;;12.22;85.74;97113.56;5050691;28;20143;-76
2023/05/26 04:00:30;;;;;;;;;;;;;;;12.19;84.61;97112.16;5050572;28;19952;-76
2023/05/26 04:02:56;;;;;;;;;;;;;;;12.18;84.52;97113.19;5067860;28;19939;-76
2023/05/26 04:05:22;;;;;;;;;;;;;;;12.16;84.93;97120.47;5083869;28;19937;-76
2023/05/26 04:07:49;;;;;;;;;;;;;;;12.17;85.31;97116.81;5050254;28;19960;-76
2023/05/26 04:10:15;;;;;;;;;;;;;;;12.18;85.20;97117.66;5084155;28;19937;-70
2023/05/26 04:12:41;;;;;;;;;;;;;;;12.19;84.86;97111.34;5050927;28;19951;-76
2023/05/26 04:15:09;;;;;;;;;;;;;;;12.19;85.15;97108.72;5066871;28;19941;-76
2023/05/26 04:17:35;;;;;;;;;;;;;;;12.21;85.27;97101.44;5050842;28;19955;-76
2023/05/26 04:20:01;;;;;;;;;;;;;;;12.25;85.04;97107.88;5049977;28;19970;-75
2023/05/26 04:22:27;;;;;;;;;;;;;;;12.30;84.83;97105.41;5066667;28;20141;-76
2023/05/26 04:24:53;;;;;;;;;;;;;;;12.36;84.88;97114.28;5066695;28;19944;-77
2023/05/26 04:27:18;;;;;;;;;;;;;;;12.41;84.70;97108.38;5064231;28;19964;-75
2023/05/26 04:29:44;;;;;;;;;;;;;;;12.48;84.69;97114.41;5084682;28;20001;-70
2023/05/26 04:32:11;;;;;;;;;;;;;;;12.54;84.02;97113.56;5084330;28;19960;-73
2023/05/26 04:34:38;;;;;;;;;;;;;;;12.61;83.78;97111.69;5085365;28;19937;-73
2023/05/26 04:37:04;;;;;;;;;;;;;;;12.71;83.53;97108.56;5083694;28;19939;-73
2023/05/26 04:39:33;;;;;;;;;;;;;;;12.78;83.40;97109.31;5067709;28;19993;-73
2023/05/26 04:41:59;;;;;;;;;;;;;;;12.86;83.06;97101.16;5084697;28;19939;-72
2023/05/26 04:44:25;;;;;;;;;;;;;;;12.95;82.44;97107.75;5085214;28;19941;-72
2023/05/26 04:46:52;;;;;;;;;;;;;;;13.03;82.13;97100.59;5084085;28;19941;-75
2023/05/26 04:49:22;;;;;;;;;;;;;;;13.11;82.28;97101.13;5066784;28;20005;-71
2023/05/26 04:51:50;;;;;;;;;;;;;;;13.15;81.64;97091.75;5084502;28;19939;-69
2023/05/26 04:54:16;;;;;;;;;;;;;;;13.23;81.68;97097.75;5084681;28;19938;-70
2023/05/26 04:56:42;;;;;;;;;;;;;;;13.30;80.28;97094.06;5083958;28;19936;-70
2023/05/26 04:59:07;;;;;;;;;;;;;;;13.41;80.38;97103.06;5083259;28;19953;-69
2023/05/26 05:01:33;;;;;;;;;;;;;;;13.52;79.97;97099.72;5083274;28;19939;-71
2023/05/26 05:03:59;;;;;;;;;;;;;;;13.65;80.18;97105.84;5084314;28;20332;-69
2023/05/26 05:06:25;;;;;;;;;;;;;;;13.77;79.67;97090.91;5066507;28;20006;-76
2023/05/26 05:08:51;;;;;;;;;;;;;;;13.96;79.04;97096.94;5067213;28;19959;-71
2023/05/26 05:11:17;;;;;;;;;;;;;;;14.11;78.61;97091.25;5084234;28;19950;-72
2023/05/26 05:13:43;;;;;;;;;;;;;;;14.27;78.06;97098.53;5067145;28;19946;-72
2023/05/26 05:16:09;;;;;;;;;;;;;;;14.48;77.02;97093.78;5084423;28;19937;-71
2023/05/26 05:18:35;;;;;;;;;;;;;;;14.70;77.11;97094.88;5083957;28;19965;-72
2023/05/26 05:21:01;;;;;;;;;;;;;;;14.95;76.84;97091.22;5084941;28;19991;-72
2023/05/26 05:23:27;;;;;;;;;;;;;;;15.17;76.45;97094.88;5083087;28;20020;-75
2023/05/26 05:25:53;;;;;;;;;;;;;;;15.41;75.80;97092.22;5083712;28;19982;-77
2023/05/26 05:28:18;;;;;;;;;;;;;;;15.65;74.31;97087.69;5066488;28;20060;-76
2023/05/26 05:30:44;;;;;;;;;;;;;;;15.85;72.84;97084.66;5084025;28;19938;-76
2023/05/26 05:33:10;;;;;;;;;;;;;;;16.05;73.17;97078.16;5066979;28;19943;-76
2023/05/26 05:35:36;;;;;;;;;;;;;;;16.20;72.52;97084.50;5066138;28;19944;-76
2023/05/26 05:38:03;;;;;;;;;;;;;;;16.37;72.71;97084.53;5066980;28;19950;-75
2023/05/26 05:40:28;;;;;;;;;;;;;;;16.47;70.97;97072.53;5084009;28;19950;-76
2023/05/26 05:42:54;;;;;;;;;;;;;;;16.59;70.62;97073.25;5066816;28;19952;-79
2023/05/26 05:45:20;;;;;;;;;;;;;;;16.67;69.38;97066.72;5066159;28;19950;-73
2023/05/26 05:47:46;;;;;;;;;;;;;;;16.76;69.19;97066.09;5065938;28;20191;-74
2023/05/26 05:50:13;;;;;;;;;;;;;;;16.88;68.82;97068.66;5065993;28;19943;-73
2023/05/26 05:52:38;;;;;;;;;;;;;;;17.05;69.49;97071.31;5083892;28;19938;-72
2023/05/26 05:55:05;;;;;;;;;;;;;;;17.27;67.05;97057.28;5082633;28;19952;-72
2023/05/26 05:57:31;;;;;;;;;;;;;;;17.47;67.14;97062.84;5084393;28;19939;-73
2023/05/26 05:59:56;;;;;;;;;;;;;;;17.69;67.36;97057.53;5083824;28;19933;-76
2023/05/26 06:02:23;;;;;;;;;;;;;;;17.85;65.29;97050.59;5065987;28;19951;-77
2023/05/26 06:04:48;;;;;;;;;;;;;;;18.00;65.95;97057.91;5083501;28;19934;-73
2023/05/26 06:07:14;;;;;;;;;;;;;;;18.17;65.77;97065.75;5082594;28;19985;-73
2023/05/26 06:09:40;;;;;;;;;;;;;;;18.33;66.41;97066.69;5082540;28;19951;-72
2023/05/26 06:12:06;;;;;;;;;;;;;;;18.42;62.89;97060.69;5083712;28;19948;-73
2023/05/26 06:14:32;;;;;;;;;;;;;;;18.41;61.19;97058.25;5083714;28;19945;-73
2023/05/26 06:16:58;;;;;;;;;;;;;;;18.37;64.00;97076.56;5084073;28;19955;-73
2023/05/26 06:19:23;;;;;;;;;;;;;;;18.39;63.68;97066.47;5082396;28;19966;-76
2023/05/26 06:21:50;;;;;;;;;;;;;;;18.50;64.60;97075.34;5083672;28;20267;-79
2023/05/26 06:24:16;;;;;;;;;;;;;;;18.58;63.78;97071.41;5065743;28;19945;-79
2023/05/26 06:26:42;;;;;;;;;;;;;;;18.62;59.59;97054.72;5082494;28;20227;-79
2023/05/26 06:29:08;;;;;;;;;;;;;;;18.57;58.81;97056.53;5083136;28;19967;-79
2023/05/26 06:31:34;;;;;;;;;;;;;;;18.55;61.35;97072.72;5082970;28;20135;-79
2023/05/26 06:34:00;;;;;;;;;;;;;;;18.62;63.87;97081.28;5065696;28;20227;-78
2023/05/26 06:36:26;;;;;;;;;;;;;;;18.69;62.18;97077.59;5082662;28;20030;-79
2023/05/26 06:38:51;;;;;;;;;;;;;;;18.72;62.94;97075.25;5083386;28;19951;-72
2023/05/26 06:41:17;;;;;;;;;;;;;;;18.74;62.36;97083.75;5086707;28;19947;-72
2023/05/26 06:43:43;;;;;;;;;;;;;;;18.72;60.86;97067.28;5087021;28;19940;-72
2023/05/26 06:46:09;;;;;;;;;;;;;;;18.75;63.33;97089.88;5069959;28;20209;-72
2023/05/26 06:48:35;;;;;;;;;;;;;;;18.80;64.03;97093.41;5069042;28;19962;-72
2023/05/26 06:51:01;;;;;;;;;;;;;;;18.81;62.13;97080.91;5087386;28;19942;-72
2023/05/26 06:53:27;;;;;;;;;;;;;;;18.86;62.69;97086.28;5086865;28;19939;-72
2023/05/26 06:55:52;;;;;;;;;;;;;;;18.85;62.53;97089.97;5085710;28;19984;-71
2023/05/26 06:58:18;;;;;;;;;;;;;;;18.94;62.31;97095.63;5086481;28;20013;-73
2023/05/26 07:01:00;;;;;;;;;;;;;;;19.01;62.01;97082.94;5086785;28;19946;-72
2023/05/26 07:03:26;;;;;;;;;;;;;;;19.10;62.08;97091.22;5085469;28;19950;-73
2023/05/26 07:05:52;;;;;;;;;;;;;;;19.16;63.00;97093.66;5069665;28;19950;-73
2023/05/26 07:08:18;;;;;;;;;;;;;;;19.01;61.54;97091.69;5085470;28;19964;-72
2023/05/26 07:10:44;;;;;;;;;;;;;;;18.98;60.41;97083.44;5085431;28;19940;-72
2023/05/26 07:13:10;;;;;;;;;;;;;;;19.00;62.05;97092.75;5068573;28;19945;-72
2023/05/26 07:15:36;;;;;;;;;;;;;;;19.12;61.35;97097.88;5085471;28;19952;-80
2023/05/26 07:18:02;;;;;;;;;;;;;;;19.24;59.13;97085.19;5086431;28;19956;-81
2023/05/26 07:20:28;;;;;;;;;;;;;;;19.34;62.44;97102.25;5086271;28;19975;-80
2023/05/26 07:22:54;;;;;;;;;;;;;;;19.41;61.66;97094.84;5086904;28;19965;-81
2023/05/26 07:25:19;;;;;;;;;;;;;;;19.45;60.97;97085.31;5086822;28;19945;-80
2023/05/26 07:27:45;;;;;;;;;;;;;;;19.50;60.43;97089.84;5086240;28;19956;-80
2023/05/26 07:30:11;;;;;;;;;;;;;;;19.53;60.02;97092.78;5086834;28;19951;-80
2023/05/26 07:32:37;;;;;;;;;;;;;;;19.58;58.81;97081.38;5086199;28;19942;-79
2023/05/26 07:35:03;;;;;;;;;;;;;;;19.46;60.45;97087.72;5068200;28;19946;-73
2023/05/26 07:37:29;;;;;;;;;;;;;;;19.29;60.12;97095.03;5086087;28;19946;-73
2023/05/26 07:39:56;;;;;;;;;;;;;;;19.22;61.45;97102.47;5068083;28;19991;-73
2023/05/26 07:42:21;;;;;;;;;;;;;;;19.29;61.94;97104.88;5068886;28;19946;-73
2023/05/26 07:44:47;;;;;;;;;;;;;;;19.37;59.67;97091.09;5086384;28;20005;-75
2023/05/26 07:47:13;;;;;;;;;;;;;;;19.39;60.67;97095.09;5085618;28;19991;-73
2023/05/26 07:49:39;;;;;;;;;;;;;;;19.53;60.48;97097.28;5068732;28;20019;-73
2023/05/26 07:52:05;;;;;;;;;;;;;;;19.65;60.13;97095.22;5084988;28;19955;-74
2023/05/26 07:54:31;;;;;;;;;;;;;;;19.77;60.59;97103.81;5067884;28;19947;-73
2023/05/26 07:56:57;;;;;;;;;;;;;;;19.90;60.87;97099.84;5085673;28;20132;-73
2023/05/26 07:59:23;;;;;;;;;;;;;;;20.04;57.42;97087.66;5085599;28;19938;-73
2023/05/26 08:01:49;;;;;;;;;;;;;;;20.12;58.55;97089.00;5068492;28;19950;-74
2023/05/26 08:04:15;;;;;;;;;;;;;;;20.22;58.97;97093.53;5084660;28;19942;-73
2023/05/26 08:06:41;;;;;;;;;;;;;;;20.37;58.80;97084.78;5085135;28;19980;-73
2023/05/26 08:09:07;;;;;;;;;;;;;;;20.55;59.50;97084.25;5086120;28;19957;-80
2023/05/26 08:11:32;;;;;;;;;;;;;;;20.65;57.97;97083.50;5084180;28;19952;-78
2023/05/26 08:33:48;;;;;;;;;;;;;;;21.02;56.29;97085.06;5038940;28;19977;-76
2023/05/26 08:36:14;;;;;;;;;;;;;;;21.19;57.15;97093.56;5024437;28;19970;-76
2023/05/26 08:38:40;;;;;;;;;;;;;;;21.35;57.26;97093.53;5025436;28;19965;-77
2023/05/26 08:41:07;;;;;;;;;;;;;;;21.41;57.20;97087.91;5007581;28;19964;-77
2023/05/26 08:43:53;;;;;;;;;;;;;;;21.52;54.61;97078.03;5023879;28;19975;-76
2023/05/26 08:46:19;;;;;;;;;;;;;;;21.56;55.36;97088.97;5024037;28;20120;-81
2023/05/26 08:48:46;;;;;;;;;;;;;;;21.55;54.79;97082.03;5024211;28;19969;-77
2023/05/26 08:51:12;;;;;;;;;;;;;;;21.58;54.75;97087.59;5007737;28;19972;-76
2023/05/26 08:53:39;;;;;;;;;;;;;;;21.63;55.36;97090.28;5040542;28;20295;-77
2023/05/26 08:56:06;;;;;;;;;;;;;;;21.62;55.20;97087.88;5025211;28;19958;-77
2023/05/26 08:58:33;;;;;;;;;;;;;;;21.62;52.93;97080.66;5024776;28;19951;-76
2023/05/26 09:01:00;;;;;;;;;;;;;;;21.65;55.77;97096.13;5007839;28;19971;-77
2023/05/26 09:03:26;;;;;;;;;;;;;;;21.65;54.54;97090.00;5024154;28;20057;-77
2023/05/26 09:05:51;;;;;;;;;;;;;;;21.70;55.75;97095.31;5024222;28;20327;-80
2023/05/26 09:08:17;;;;;;;;;;;;;;;21.75;53.69;97079.25;5023679;28;20007;-80
2023/05/26 09:10:43;;;;;;;;;;;;;;;21.78;55.17;97092.06;5023999;28;20001;-79
2023/05/26 09:13:10;;;;;;;;;;;;;;;21.81;55.10;97104.06;5007451;28;19973;-78
2023/05/26 09:15:37;;;;;;;;;;;;;;;21.81;54.64;97096.84;5007303;28;19974;-79
2023/05/26 09:18:04;;;;;;;;;;;;;;;21.91;56.81;97101.34;5023605;28;20160;-79
2023/05/26 09:20:30;;;;;;;;;;;;;;;21.97;54.15;97091.47;5007294;28;19965;-80
2023/05/26 09:22:58;;;;;;;;;;;;;;;22.02;55.17;97094.09;5022598;28;20511;-83
2023/05/26 09:25:28;;;;;;;;;;;;;;;22.04;55.10;97098.06;5007061;28;19963;-73
2023/05/26 09:27:59;;;;;;;;;;;;;;;22.04;53.96;97095.41;5023932;28;19977;-77
2023/05/26 09:30:27;;;;;;;;;;;;;;;22.03;53.94;97093.81;5024796;28;20261;-78
2023/05/26 09:32:53;;;;;;;;;;;;;;;22.15;54.37;97101.47;5024365;28;19964;-78
2023/05/26 09:35:19;;;;;;;;;;;;;;;22.19;50.98;97083.81;5023628;28;20190;-79
2023/05/26 09:37:45;;;;;;;;;;;;;;;22.15;54.03;97095.34;5023202;28;19972;-78
2023/05/26 09:40:14;;;;;;;;;;;;;;;22.14;53.20;97086.53;5023924;28;19966;-77
2023/05/26 09:42:51;;;;;;;;;;;;;;;22.20;53.55;97098.78;5023129;28;20148;-77
2023/05/26 09:45:17;;;;;;;;;;;;;;;22.32;53.39;97097.69;5023357;28;19969;-78
2023/05/26 09:47:42;;;;;;;;;;;;;;;22.37;53.64;97093.09;5023220;28;19961;-79
2023/05/26 09:50:08;;;;;;;;;;;;;;;22.47;52.71;97095.72;5023183;28;20014;-78
2023/05/26 09:52:36;;;;;;;;;;;;;;;22.51;53.68;97093.28;5023770;28;20114;-80
2023/05/26 09:55:02;;;;;;;;;;;;;;;22.53;51.76;97088.44;5024843;28;19961;-79
2023/05/26 09:57:28;;;;;;;;;;;;;;;22.54;53.03;97090.03;5023476;28;19983;-79
2023/05/26 09:59:56;;;;;;;;;;;;;;;22.60;53.58;97099.63;5040026;28;19966;-71
2023/05/26 10:02:23;;;;;;;;;;;;;;;22.65;53.14;97096.91;5022850;28;19982;-77
2023/05/26 10:04:51;;;;;;;;;;;;;;;22.63;51.06;97084.88;5023106;28;20152;-77
2023/05/26 10:07:18;;;;;;;;;;;;;;;22.65;52.86;97091.53;5023227;28;19966;-77
2023/05/26 10:09:49;;;;;;;;;;;;;;;22.77;48.62;97077.81;5022883;28;19974;-78
2023/05/26 10:12:16;;;;;;;;;;;;;;;22.92;51.16;97092.16;5023043;28;19987;-78
2023/05/26 10:14:41;;;;;;;;;;;;;;;23.06;52.29;97091.22;5025867;28;20263;-77
2023/05/26 10:17:08;;;;;;;;;;;;;;;23.22;49.71;97086.50;5026794;28;20013;-77
2023/05/26 10:19:34;;;;;;;;;;;;;;;23.34;48.94;97088.00;5027512;28;19953;-79
2023/05/26 10:22:06;;;;;;;;;;;;;;;23.37;50.76;97093.59;5010851;28;19961;-74
2023/05/26 10:24:35;;;;;;;;;;;;;;;23.37;50.57;97095.47;5043305;28;19986;-73
2023/05/26 10:27:03;;;;;;;;;;;;;;;23.38;51.01;97095.19;5026979;28;19978;-74
2023/05/26 10:29:36;;;;;;;;;;;;;;;23.46;49.95;97088.41;5027614;28;19968;-73
2023/05/26 10:32:03;;;;;;;;;;;;;;;23.65;50.50;97088.47;5026419;28;19970;-74
2023/05/26 10:34:36;;;;;;;;;;;;;;;23.79;46.76;97084.03;5026634;28;19964;-73
2023/05/26 10:37:11;;;;;;;;;;;;;;;23.83;47.98;97084.22;5027213;28;20124;-74
2023/05/26 10:39:37;;;;;;;;;;;;;;;23.89;47.92;97083.88;5027853;28;19962;-74
2023/05/26 10:42:14;;;;;;;;;;;;;;;23.92;50.00;97087.88;5010523;28;19999;-73
2023/05/26 10:44:41;;;;;;;;;;;;;;;23.88;50.31;97098.38;5027450;28;19959;-74
2023/05/26 10:47:12;;;;;;;;;;;;;;;23.89;45.69;97083.88;5026214;28;19962;-73
2023/05/26 10:49:38;;;;;;;;;;;;;;;23.94;48.81;97090.25;5026374;28;19974;-73
2023/05/26 10:52:12;;;;;;;;;;;;;;;23.74;47.31;97086.72;5026080;28;20014;-74
2023/05/26 10:54:37;;;;;;;;;;;;;;;23.70;48.70;97099.88;5027330;28;19958;-77
2023/05/26 10:57:04;;;;;;;;;;;;;;;23.86;49.01;97105.09;5027416;28;20176;-72
2023/05/26 10:59:32;;;;;;;;;;;;;;;23.96;46.99;97093.44;5026220;28;20142;-78
2023/05/26 11:02:05;;;;;;;;;;;;;;;24.05;46.09;97083.69;5025971;28;20124;-78
2023/05/26 11:04:41;;;;;;;;;;;;;;;24.09;47.79;97088.16;5025698;28;20143;-78
2023/05/26 11:07:15;;;;;;;;;;;;;;;24.10;48.19;97083.59;5026300;28;19965;-78
2023/05/26 11:09:53;;;;;;;;;;;;;;;24.08;47.45;97091.13;5027224;28;19972;-77
2023/05/26 11:12:19;;;;;;;;;;;;;;;24.10;48.76;97088.97;5026842;28;19988;-78
2023/05/26 11:14:45;;;;;;;;;;;;;;;23.96;45.55;97090.75;5025520;28;19960;-78
2023/05/26 11:17:11;;;;;;;;;;;;;;;23.85;46.80;97096.25;5025765;28;20312;-73
2023/05/26 11:19:38;;;;;;;;;;;;;;;23.79;48.15;97092.06;5026982;28;19963;-74
2023/05/26 11:22:08;;;;;;;;;;;;;;;23.80;47.62;97099.00;5027065;28;20251;-74
2023/05/26 11:24:34;;;;;;;;;;;;;;;23.81;46.66;97086.41;5026753;28;19979;-74
2023/05/26 11:27:03;;;;;;;;;;;;;;;23.85;48.26;97088.22;5041626;28;19967;-73
2023/05/26 11:29:30;;;;;;;;;;;;;;;23.99;48.22;97088.31;5026825;28;19967;-74
2023/05/26 11:31:55;;;;;;;;;;;;;;;24.12;46.29;97086.78;5025638;28;19964;-73
2023/05/26 11:34:22;;;;;;;;;;;;;;;24.21;46.18;97078.91;5025661;28;19975;-74
2023/05/26 11:36:48;;;;;;;;;;;;;;;24.17;47.41;97083.25;5026459;28;19963;-77
2023/05/26 11:39:15;;;;;;;;;;;;;;;24.13;46.63;97082.22;5025098;28;19970;-77
2023/05/26 11:41:41;;;;;;;;;;;;;;;24.11;47.29;97075.28;5025178;28;20151;-79
2023/05/26 11:44:12;;;;;;;;;;;;;;;24.10;46.22;97086.28;5026930;28;19964;-78
2023/05/26 11:46:39;;;;;;;;;;;;;;;24.15;46.07;97085.41;5025277;28;19958;-76
2023/05/26 11:49:10;;;;;;;;;;;;;;;24.10;45.46;97080.94;5025067;28;20258;-78
2023/05/26 11:51:36;;;;;;;;;;;;;;;24.20;47.44;97090.72;5025128;28;19969;-76
2023/05/26 11:54:08;;;;;;;;;;;;;;;24.28;45.56;97088.16;5024800;28;20147;-84
2023/05/26 11:56:35;;;;;;;;;;;;;;;24.37;46.33;97087.50;5026631;28;19964;-83
2023/05/26 11:59:01;;;;;;;;;;;;;;;24.37;45.99;97084.84;5025141;28;19968;-85
2023/05/26 12:01:27;;;;;;;;;;;;;;;24.38;46.29;97087.22;5041725;28;19961;-84
2023/05/26 12:03:56;;;;;;;;;;;;;;;24.41;44.78;97077.81;5025993;28;19957;-84
2023/05/26 12:06:22;;;;;;;;;;;;;;;24.39;46.03;97085.34;5025882;28;20290;-85
2023/05/26 12:08:48;;;;;;;;;;;;;;;24.34;45.92;97088.91;5025918;28;19968;-74
2023/05/26 12:11:19;;;;;;;;;;;;;;;24.38;45.19;97086.41;5026009;28;20034;-76
2023/05/26 12:13:45;;;;;;;;;;;;;;;24.36;44.66;97081.38;5041096;28;20147;-77
2023/05/26 12:16:18;;;;;;;;;;;;;;;24.37;45.61;97084.84;5026034;28;20030;-77
2023/05/26 12:18:43;;;;;;;;;;;;;;;24.47;45.17;97072.06;5025964;28;20116;-77
2023/05/26 12:21:10;;;;;;;;;;;;;;;24.42;44.11;97080.19;5025943;28;20015;-77
2023/05/26 12:23:35;;;;;;;;;;;;;;;24.33;43.90;97073.09;5025954;28;19962;-77
2023/05/26 12:26:12;;;;;;;;;;;;;;;24.28;44.46;97073.97;5025857;28;20009;-77
2023/05/26 12:28:39;;;;;;;;;;;;;;;24.25;44.92;97069.19;5024199;28;19970;-74
2023/05/26 12:31:05;;;;;;;;;;;;;;;24.34;44.27;97067.47;5024551;28;19974;-77
2023/05/26 12:33:31;;;;;;;;;;;;;;;24.32;44.05;97064.28;5024218;28;19967;-76
2023/05/26 12:35:57;;;;;;;;;;;;;;;24.39;44.51;97071.94;5040695;28;20141;-77
2023/05/26 12:38:23;;;;;;;;;;;;;;;24.49;44.59;97075.28;5023448;28;19969;-77
2023/05/26 12:40:49;;;;;;;;;;;;;;;24.56;43.21;97066.06;5040726;28;19962;-77
2023/05/26 12:43:16;;;;;;;;;;;;;;;24.63;43.96;97064.63;5040367;28;20021;-76
2023/05/26 12:45:42;;;;;;;;;;;;;;;24.62;43.20;97064.91;5024104;28;20279;-82
2023/05/26 12:48:08;;;;;;;;;;;;;;;24.53;42.08;97059.41;5024483;28;19985;-79
2023/05/26 12:50:34;;;;;;;;;;;;;;;24.53;43.54;97070.13;5040909;28;19970;-77
2023/05/26 12:52:59;;;;;;;;;;;;;;;24.67;43.93;97064.81;5025608;28;20243;-76
2023/05/26 12:55:25;;;;;;;;;;;;;;;24.82;43.67;97069.94;5024343;28;20218;-76
2023/05/26 12:57:51;;;;;;;;;;;;;;;24.82;41.77;97063.75;5024201;28;19964;-76
2023/05/26 13:00:19;;;;;;;;;;;;;;;24.73;43.38;97065.53;5023650;28;19970;-77
2023/05/26 13:02:44;;;;;;;;;;;;;;;24.67;43.66;97064.81;5023811;28;19968;-76
2023/05/26 13:05:10;;;;;;;;;;;;;;;24.71;43.96;97063.94;5025005;28;19956;-74